sensor_id;sensor_type;location;lat;lon;timestamp;pressure;altitude;pressure_sealevel;temperature;humidity
25350;BME280;13302;48.796;11.978;2022-12-26T00:01:33;96845.47;;;11.47;37.18
25350;BME280;13302;48.796;11.978;2022-12-26T00:04:21;96843.13;;;11.49;37.10
25350;BME280;13302;48.796;11.978;2022-12-26T00:07:28;96852.72;;;11.52;37.08
25350;BME280;13302;48.796;11.978;2022-12-26T00:10:15;96852.34;;;11.54;37.26
25350;BME280;13302;48.796;11.978;2022-12-26T00:13:02;96863.88;;;11.56;36.95
25350;BME280;13302;48.796;11.978;2022-12-26T00:16:17;96864.22;;;11.54;37.29
25350;BME280;13302;48.796;11.978;2022-12-26T00:19:04;96871.03;;;11.57;37.16
25350;BME280;13302;48.796;11.978;2022-12-26T00:21:51;96871.03;;;11.57;37.18
25350;BME280;13302;48.796;11.978;2022-12-26T00:24:38;96869.84;;;11.58;36.89
25350;BME280;13302;48.796;11.978;2022-12-26T00:27:25;96878.53;;;11.56;36.81
25350;BME280;13302;48.796;11.978;2022-12-26T00:30:12;96880.94;;;11.58;37.15
25350;BME280;13302;48.796;11.978;2022-12-26T00:32:59;96879.69;;;11.55;36.94
25350;BME280;13302;48.796;11.978;2022-12-26T00:35:46;96880.03;;;11.54;37.00
25350;BME280;13302;48.796;11.978;2022-12-26T00:38:34;96866.88;;;11.50;36.95
25350;BME280;13302;48.796;11.978;2022-12-26T00:41:22;96872.00;;;11.48;36.87
25350;BME280;13302;48.796;11.978;2022-12-26T00:44:09;96873.88;;;11.44;36.66
25350;BME280;13302;48.796;11.978;2022-12-26T00:46:56;96871.34;;;11.39;36.40
25350;BME280;13302;48.796;11.978;2022-12-26T00:49:43;96874.81;;;11.36;36.63
25350;BME280;13302;48.796;11.978;2022-12-26T00:52:50;96894.47;;;11.31;36.10
25350;BME280;13302;48.796;11.978;2022-12-26T00:55:37;96881.69;;;11.27;36.03
25350;BME280;13302;48.796;11.978;2022-12-26T00:58:25;96895.44;;;11.23;36.23
25350;BME280;13302;48.796;11.978;2022-12-26T01:01:17;96899.25;;;11.19;36.56
25350;BME280;13302;48.796;11.978;2022-12-26T01:04:05;96894.53;;;11.19;36.83
25350;BME280;13302;48.796;11.978;2022-12-26T01:06:52;96881.84;;;11.18;36.90
25350;BME280;13302;48.796;11.978;2022-12-26T01:09:39;96885.06;;;11.20;37.18
25350;BME280;13302;48.796;11.978;2022-12-26T01:12:26;96872.03;;;11.21;37.11
25350;BME280;13302;48.796;11.978;2022-12-26T01:15:14;96890.72;;;11.24;37.13
25350;BME280;13302;48.796;11.978;2022-12-26T01:18:01;96888.38;;;11.26;36.89
25350;BME280;13302;48.796;11.978;2022-12-26T01:20:48;96905.88;;;11.30;37.18
25350;BME280;13302;48.796;11.978;2022-12-26T01:23:35;96915.44;;;11.32;37.36
25350;BME280;13302;48.796;11.978;2022-12-26T01:26:22;96928.19;;;11.37;37.30
25350;BME280;13302;48.796;11.978;2022-12-26T01:29:09;96923.13;;;11.39;37.09
25350;BME280;13302;48.796;11.978;2022-12-26T01:31:56;96926.81;;;11.43;37.11
25350;BME280;13302;48.796;11.978;2022-12-26T01:34:43;96932.44;;;11.46;36.93
25350;BME280;13302;48.796;11.978;2022-12-26T01:37:30;96929.31;;;11.48;36.73
25350;BME280;13302;48.796;11.978;2022-12-26T01:40:17;96927.34;;;11.48;36.68
25350;BME280;13302;48.796;11.978;2022-12-26T01:43:10;96923.69;;;11.44;36.21
25350;BME280;13302;48.796;11.978;2022-12-26T01:45:57;96929.22;;;11.44;36.18
25350;BME280;13302;48.796;11.978;2022-12-26T01:48:44;96938.22;;;11.41;35.92
25350;BME280;13302;48.796;11.978;2022-12-26T01:51:35;96944.81;;;11.37;36.37
25350;BME280;13302;48.796;11.978;2022-12-26T01:54:26;96934.47;;;11.34;36.19
25350;BME280;13302;48.796;11.978;2022-12-26T01:57:35;96926.06;;;11.30;36.10
25350;BME280;13302;48.796;11.978;2022-12-26T02:00:23;96913.75;;;11.28;36.25
25350;BME280;13302;48.796;11.978;2022-12-26T02:03:10;96918.00;;;11.25;36.70
25350;BME280;13302;48.796;11.978;2022-12-26T02:06:16;96930.59;;;11.23;36.43
25350;BME280;13302;48.796;11.978;2022-12-26T02:09:03;96933.28;;;11.19;36.27
25350;BME280;13302;48.796;11.978;2022-12-26T02:12:01;96940.31;;;11.17;36.02
25350;BME280;13302;48.796;11.978;2022-12-26T02:15:14;96920.41;;;11.11;35.83
25350;BME280;13302;48.796;11.978;2022-12-26T02:18:02;96931.72;;;11.06;36.14
25350;BME280;13302;48.796;11.978;2022-12-26T02:27:21;96915.75;;;10.87;36.21
25350;BME280;13302;48.796;11.978;2022-12-26T02:34:13;96905.91;;;10.74;35.78
25350;BME280;13302;48.796;11.978;2022-12-26T02:40:09;96900.06;;;10.64;35.79
25350;BME280;13302;48.796;11.978;2022-12-26T02:49:54;96907.56;;;10.51;36.19
25350;BME280;13302;48.796;11.978;2022-12-26T02:56:35;96894.25;;;10.41;35.84
25350;BME280;13302;48.796;11.978;2022-12-26T02:59:58;96902.41;;;10.37;36.05
25350;BME280;13302;48.796;11.978;2022-12-26T03:06:22;96919.03;;;10.25;36.32
25350;BME280;13302;48.796;11.978;2022-12-26T03:09:32;96911.31;;;10.19;35.99
25350;BME280;13302;48.796;11.978;2022-12-26T03:12:47;96912.00;;;10.16;36.17
25350;BME280;13302;48.796;11.978;2022-12-26T03:16:03;96919.00;;;10.13;36.09
25350;BME280;13302;48.796;11.978;2022-12-26T03:19:10;96913.03;;;10.11;36.33
25350;BME280;13302;48.796;11.978;2022-12-26T03:21:59;96920.06;;;10.08;36.11
25350;BME280;13302;48.796;11.978;2022-12-26T03:24:48;96922.84;;;10.08;36.21
25350;BME280;13302;48.796;11.978;2022-12-26T03:27:54;96908.56;;;10.06;36.39
25350;BME280;13302;48.796;11.978;2022-12-26T03:30:41;96916.84;;;10.06;36.20
25350;BME280;13302;48.796;11.978;2022-12-26T03:33:40;96919.94;;;10.05;36.41
25350;BME280;13302;48.796;11.978;2022-12-26T03:39:52;96910.88;;;10.04;36.43
25350;BME280;13302;48.796;11.978;2022-12-26T03:43:25;96891.41;;;10.01;36.55
25350;BME280;13302;48.796;11.978;2022-12-26T03:46:59;96892.91;;;9.98;36.62
25350;BME280;13302;48.796;11.978;2022-12-26T03:50:22;96883.81;;;9.98;36.77
25350;BME280;13302;48.796;11.978;2022-12-26T03:53:49;96886.69;;;10.01;36.69
25350;BME280;13302;48.796;11.978;2022-12-26T03:57:08;96902.13;;;10.02;36.91
25350;BME280;13302;48.796;11.978;2022-12-26T04:00:38;96901.06;;;10.07;37.26
25350;BME280;13302;48.796;11.978;2022-12-26T04:03:46;96890.13;;;10.10;37.25
25350;BME280;13302;48.796;11.978;2022-12-26T04:06:58;96911.53;;;10.13;37.13
25350;BME280;13302;48.796;11.978;2022-12-26T04:10:09;96914.88;;;10.19;36.99
25350;BME280;13302;48.796;11.978;2022-12-26T04:13:21;96913.03;;;10.23;37.26
25350;BME280;13302;48.796;11.978;2022-12-26T04:16:35;96911.19;;;10.27;37.39
25350;BME280;13302;48.796;11.978;2022-12-26T04:19:52;96923.16;;;10.31;37.20
25350;BME280;13302;48.796;11.978;2022-12-26T04:22:57;96927.28;;;10.37;37.49
25350;BME280;13302;48.796;11.978;2022-12-26T04:26:09;96926.22;;;10.42;37.58
25350;BME280;13302;48.796;11.978;2022-12-26T04:29:17;96925.66;;;10.48;37.55
25350;BME280;13302;48.796;11.978;2022-12-26T04:32:44;96926.91;;;10.51;37.19
25350;BME280;13302;48.796;11.978;2022-12-26T04:35:54;96940.19;;;10.57;37.41
25350;BME280;13302;48.796;11.978;2022-12-26T04:39:05;96935.19;;;10.63;37.45
25350;BME280;13302;48.796;11.978;2022-12-26T04:42:14;96925.50;;;10.69;37.60
25350;BME280;13302;48.796;11.978;2022-12-26T04:45:21;96908.69;;;10.74;37.51
25350;BME280;13302;48.796;11.978;2022-12-26T04:48:09;96919.13;;;10.81;37.51
25350;BME280;13302;48.796;11.978;2022-12-26T04:51:15;96915.66;;;10.84;37.49
25350;BME280;13302;48.796;11.978;2022-12-26T04:54:03;96920.13;;;10.88;37.26
25350;BME280;13302;48.796;11.978;2022-12-26T04:56:50;96904.81;;;10.91;37.24
25350;BME280;13302;48.796;11.978;2022-12-26T04:59:37;96901.34;;;10.94;37.51
25350;BME280;13302;48.796;11.978;2022-12-26T05:02:24;96905.00;;;10.98;37.49
25350;BME280;13302;48.796;11.978;2022-12-26T05:05:38;96910.19;;;10.99;37.31
25350;BME280;13302;48.796;11.978;2022-12-26T05:08:45;96916.97;;;11.02;37.46
25350;BME280;13302;48.796;11.978;2022-12-26T05:11:51;96911.06;;;11.03;37.38
25350;BME280;13302;48.796;11.978;2022-12-26T05:14:38;96912.34;;;11.06;37.42
25350;BME280;13302;48.796;11.978;2022-12-26T05:17:25;96924.66;;;11.09;37.16
25350;BME280;13302;48.796;11.978;2022-12-26T05:20:31;96928.25;;;11.09;37.27
25350;BME280;13302;48.796;11.978;2022-12-26T05:23:26;96929.84;;;11.10;37.26
25350;BME280;13302;48.796;11.978;2022-12-26T05:26:32;96919.22;;;11.12;37.33
25350;BME280;13302;48.796;11.978;2022-12-26T05:29:38;96914.97;;;11.15;37.29
25350;BME280;13302;48.796;11.978;2022-12-26T05:32:25;96912.63;;;11.17;37.31
25350;BME280;13302;48.796;11.978;2022-12-26T05:35:32;96927.28;;;11.17;37.14
25350;BME280;13302;48.796;11.978;2022-12-26T05:38:20;96923.34;;;11.18;37.38
25350;BME280;13302;48.796;11.978;2022-12-26T05:41:08;96930.94;;;11.21;36.97
25350;BME280;13302;48.796;11.978;2022-12-26T05:43:55;96942.81;;;11.22;37.25
25350;BME280;13302;48.796;11.978;2022-12-26T05:46:42;96936.13;;;11.23;37.17
25350;BME280;13302;48.796;11.978;2022-12-26T05:49:29;96937.75;;;11.24;37.22
25350;BME280;13302;48.796;11.978;2022-12-26T05:52:17;96937.38;;;11.25;36.96
25350;BME280;13302;48.796;11.978;2022-12-26T05:55:04;96942.09;;;11.25;37.10
25350;BME280;13302;48.796;11.978;2022-12-26T05:57:51;96952.03;;;11.26;37.22
25350;BME280;13302;48.796;11.978;2022-12-26T06:00:38;96937.84;;;11.27;37.21
25350;BME280;13302;48.796;11.978;2022-12-26T06:03:25;96943.38;;;11.27;37.14
25350;BME280;13302;48.796;11.978;2022-12-26T06:06:16;96941.06;;;11.29;37.15
25350;BME280;13302;48.796;11.978;2022-12-26T06:09:03;96943.47;;;11.31;37.10
25350;BME280;13302;48.796;11.978;2022-12-26T06:11:50;96933.22;;;11.31;37.11
25350;BME280;13302;48.796;11.978;2022-12-26T06:14:37;96934.03;;;11.32;36.95
25350;BME280;13302;48.796;11.978;2022-12-26T06:17:24;96929.63;;;11.31;37.04
25350;BME280;13302;48.796;11.978;2022-12-26T06:20:11;96930.06;;;11.33;37.16
25350;BME280;13302;48.796;11.978;2022-12-26T06:22:58;96934.03;;;11.32;36.71
25350;BME280;13302;48.796;11.978;2022-12-26T06:25:52;96936.78;;;11.32;37.18
25350;BME280;13302;48.796;11.978;2022-12-26T06:28:41;96940.81;;;11.34;37.13
25350;BME280;13302;48.796;11.978;2022-12-26T06:31:30;96934.13;;;11.35;36.87
25350;BME280;13302;48.796;11.978;2022-12-26T06:34:18;96923.84;;;11.36;36.85
25350;BME280;13302;48.796;11.978;2022-12-26T06:37:05;96930.97;;;11.37;36.86
25350;BME280;13302;48.796;11.978;2022-12-26T06:39:52;96913.56;;;11.36;37.09
25350;BME280;13302;48.796;11.978;2022-12-26T06:42:38;96918.31;;;11.36;36.57
25350;BME280;13302;48.796;11.978;2022-12-26T06:45:25;96924.63;;;11.36;36.76
25350;BME280;13302;48.796;11.978;2022-12-26T06:48:12;96925.00;;;11.35;36.83
25350;BME280;13302;48.796;11.978;2022-12-26T06:51:04;96920.63;;;11.34;36.80
25350;BME280;13302;48.796;11.978;2022-12-26T06:53:52;96923.03;;;11.35;36.91
25350;BME280;13302;48.796;11.978;2022-12-26T06:56:39;96922.66;;;11.37;37.03
25350;BME280;13302;48.796;11.978;2022-12-26T06:59:26;96925.44;;;11.37;36.73
25350;BME280;13302;48.796;11.978;2022-12-26T07:02:13;96922.31;;;11.38;36.69
25350;BME280;13302;48.796;11.978;2022-12-26T07:05:00;96928.28;;;11.40;36.65
25350;BME280;13302;48.796;11.978;2022-12-26T07:07:50;96930.28;;;11.40;36.72
25350;BME280;13302;48.796;11.978;2022-12-26T07:10:38;96931.88;;;11.41;36.63
25350;BME280;13302;48.796;11.978;2022-12-26T07:13:25;96932.69;;;11.41;36.57
25350;BME280;13302;48.796;11.978;2022-12-26T07:16:12;96937.41;;;11.41;36.82
25350;BME280;13302;48.796;11.978;2022-12-26T07:18:59;96943.75;;;11.41;36.58
25350;BME280;13302;48.796;11.978;2022-12-26T07:21:46;96933.16;;;11.43;36.85
25350;BME280;13302;48.796;11.978;2022-12-26T07:24:33;96933.16;;;11.43;36.67
25350;BME280;13302;48.796;11.978;2022-12-26T07:27:20;96937.53;;;11.44;36.87
25350;BME280;13302;48.796;11.978;2022-12-26T07:30:08;96937.97;;;11.46;36.60
25350;BME280;13302;48.796;11.978;2022-12-26T07:32:55;96927.69;;;11.47;36.55
25350;BME280;13302;48.796;11.978;2022-12-26T07:35:42;96932.50;;;11.50;36.74
25350;BME280;13302;48.796;11.978;2022-12-26T07:38:29;96943.25;;;11.51;36.56
25350;BME280;13302;48.796;11.978;2022-12-26T07:41:17;96938.19;;;11.54;36.78
25350;BME280;13302;48.796;11.978;2022-12-26T07:44:25;96940.94;;;11.54;36.57
25350;BME280;13302;48.796;11.978;2022-12-26T07:47:12;96950.53;;;11.56;36.93
25350;BME280;13302;48.796;11.978;2022-12-26T07:49:59;96958.44;;;11.58;36.69
25350;BME280;13302;48.796;11.978;2022-12-26T07:52:46;96967.56;;;11.58;36.56
25350;BME280;13302;48.796;11.978;2022-12-26T07:55:33;96964.81;;;11.58;36.44
25350;BME280;13302;48.796;11.978;2022-12-26T07:58:20;96968.84;;;11.61;36.62
25350;BME280;13302;48.796;11.978;2022-12-26T08:01:07;96969.63;;;11.61;36.75
25350;BME280;13302;48.796;11.978;2022-12-26T08:03:54;96974.81;;;11.63;36.55
25350;BME280;13302;48.796;11.978;2022-12-26T08:06:41;96979.53;;;11.62;36.75
25350;BME280;13302;48.796;11.978;2022-12-26T08:09:28;96985.53;;;11.64;36.51
25350;BME280;13302;48.796;11.978;2022-12-26T08:12:16;96988.75;;;11.66;36.49
25350;BME280;13302;48.796;11.978;2022-12-26T08:15:08;96977.31;;;11.68;36.79
25350;BME280;13302;48.796;11.978;2022-12-26T08:17:57;96974.19;;;11.69;36.59
25350;BME280;13302;48.796;11.978;2022-12-26T08:20:44;96990.47;;;11.71;36.70
25350;BME280;13302;48.796;11.978;2022-12-26T08:23:32;96987.34;;;11.72;36.68
25350;BME280;13302;48.796;11.978;2022-12-26T08:26:19;96991.69;;;11.73;36.89
25350;BME280;13302;48.796;11.978;2022-12-26T08:29:09;96994.13;;;11.75;36.80
25350;BME280;13302;48.796;11.978;2022-12-26T08:31:57;96982.25;;;11.74;36.88
25350;BME280;13302;48.796;11.978;2022-12-26T08:34:44;96971.97;;;11.75;37.05
25350;BME280;13302;48.796;11.978;2022-12-26T08:37:31;96973.59;;;11.76;36.90
25350;BME280;13302;48.796;11.978;2022-12-26T08:40:18;96966.09;;;11.76;37.00
25350;BME280;13302;48.796;11.978;2022-12-26T08:43:25;96968.03;;;11.76;37.28
25350;BME280;13302;48.796;11.978;2022-12-26T08:46:32;96964.94;;;11.77;37.12
25350;BME280;13302;48.796;11.978;2022-12-26T08:49:19;96966.50;;;11.78;37.08
25350;BME280;13302;48.796;11.978;2022-12-26T08:52:07;96970.91;;;11.79;37.10
25350;BME280;13302;48.796;11.978;2022-12-26T08:54:54;96979.22;;;11.79;37.42
25350;BME280;13302;48.796;11.978;2022-12-26T08:57:41;96986.00;;;11.82;37.41
25350;BME280;13302;48.796;11.978;2022-12-26T09:00:28;96979.28;;;11.83;37.09
25350;BME280;13302;48.796;11.978;2022-12-26T09:03:15;96976.53;;;11.83;37.51
25350;BME280;13302;48.796;11.978;2022-12-26T09:06:03;96970.66;;;11.84;37.13
25350;BME280;13302;48.796;11.978;2022-12-26T09:08:53;96965.91;;;11.85;37.22
25350;BME280;13302;48.796;11.978;2022-12-26T09:11:40;96963.56;;;11.87;37.45
25350;BME280;13302;48.796;11.978;2022-12-26T09:14:27;96967.16;;;11.87;37.17
25350;BME280;13302;48.796;11.978;2022-12-26T09:17:14;96964.38;;;11.87;37.20
25350;BME280;13302;48.796;11.978;2022-12-26T09:20:01;96965.19;;;11.88;37.19
25350;BME280;13302;48.796;11.978;2022-12-26T09:22:49;96963.56;;;11.87;37.44
25350;BME280;13302;48.796;11.978;2022-12-26T09:25:36;96976.28;;;11.88;37.43
25350;BME280;13302;48.796;11.978;2022-12-26T09:28:23;96985.38;;;11.88;37.46
25350;BME280;13302;48.796;11.978;2022-12-26T09:31:13;96973.50;;;11.88;37.50
25350;BME280;13302;48.796;11.978;2022-12-26T09:34:03;96964.03;;;11.89;37.44
25350;BME280;13302;48.796;11.978;2022-12-26T09:36:50;96966.00;;;11.88;37.33
25350;BME280;13302;48.796;11.978;2022-12-26T09:39:37;96971.16;;;11.90;37.51
25350;BME280;13302;48.796;11.978;2022-12-26T09:45:47;96981.09;;;11.91;37.66
25350;BME280;13302;48.796;11.978;2022-12-26T09:49:20;96984.66;;;11.91;37.50
25350;BME280;13302;48.796;11.978;2022-12-26T09:52:14;96980.75;;;11.92;37.61
25350;BME280;13302;48.796;11.978;2022-12-26T09:55:09;96980.38;;;11.94;37.31
25350;BME280;13302;48.796;11.978;2022-12-26T09:58:09;96964.56;;;11.94;37.50
25350;BME280;13302;48.796;11.978;2022-12-26T10:01:04;96966.97;;;11.96;37.74
25350;BME280;13302;48.796;11.978;2022-12-26T10:03:56;96963.84;;;11.98;37.50
25350;BME280;13302;48.796;11.978;2022-12-26T10:06:48;96962.69;;;11.98;37.84
25350;BME280;13302;48.796;11.978;2022-12-26T10:09:51;96960.78;;;12.03;37.74
25350;BME280;13302;48.796;11.978;2022-12-26T10:12:55;96960.00;;;12.02;37.64
25350;BME280;13302;48.796;11.978;2022-12-26T10:15:52;96959.22;;;12.02;37.82
25350;BME280;13302;48.796;11.978;2022-12-26T10:19:04;96960.00;;;12.02;37.76
25350;BME280;13302;48.796;11.978;2022-12-26T10:24:50;96949.38;;;12.04;38.24
25350;BME280;13302;48.796;11.978;2022-12-26T10:27:40;96947.75;;;12.03;38.10
25350;BME280;13302;48.796;11.978;2022-12-26T10:30:34;96932.28;;;12.02;38.02
25350;BME280;13302;48.796;11.978;2022-12-26T10:36:48;96935.16;;;12.06;38.31
25350;BME280;13302;48.796;11.978;2022-12-26T10:39:44;96927.38;;;12.11;38.30
25350;BME280;13302;48.796;11.978;2022-12-26T10:42:37;96934.97;;;12.14;38.07
25350;BME280;13302;48.796;11.978;2022-12-26T10:45:42;96949.25;;;12.16;38.22
25350;BME280;13302;48.796;11.978;2022-12-26T10:48:32;96951.69;;;12.18;38.12
25350;BME280;13302;48.796;11.978;2022-12-26T10:51:19;96962.06;;;12.21;38.27
25350;BME280;13302;48.796;11.978;2022-12-26T10:54:13;96947.38;;;12.20;38.57
25350;BME280;13302;48.796;11.978;2022-12-26T10:57:03;96949.44;;;12.23;38.33
25350;BME280;13302;48.796;11.978;2022-12-26T10:59:53;96946.31;;;12.25;38.40
25350;BME280;13302;48.796;11.978;2022-12-26T11:02:40;96943.97;;;12.27;38.53
25350;BME280;13302;48.796;11.978;2022-12-26T11:05:28;96957.13;;;12.30;38.42
25350;BME280;13302;48.796;11.978;2022-12-26T11:08:45;96958.38;;;12.32;38.39
25350;BME280;13302;48.796;11.978;2022-12-26T11:11:35;96952.09;;;12.35;38.59
25350;BME280;13302;48.796;11.978;2022-12-26T11:14:35;96956.81;;;12.35;38.29
25350;BME280;13302;48.796;11.978;2022-12-26T11:17:26;96967.56;;;12.36;38.30
25350;BME280;13302;48.796;11.978;2022-12-26T11:23:27;96972.75;;;12.38;38.71
25350;BME280;13302;48.796;11.978;2022-12-26T11:26:26;96977.50;;;12.37;38.33
25350;BME280;13302;48.796;11.978;2022-12-26T11:29:21;96982.25;;;12.37;38.61
25350;BME280;13302;48.796;11.978;2022-12-26T11:32:18;96983.03;;;12.37;38.38
25350;BME280;13302;48.796;11.978;2022-12-26T11:35:13;96989.41;;;12.38;38.15
25350;BME280;13302;48.796;11.978;2022-12-26T11:38:06;96985.00;;;12.37;38.18
25350;BME280;13302;48.796;11.978;2022-12-26T11:41:49;96986.16;;;12.36;38.50
25350;BME280;13302;48.796;11.978;2022-12-26T11:44:36;96978.22;;;12.34;38.11
25350;BME280;13302;48.796;11.978;2022-12-26T11:47:28;96973.38;;;12.31;38.66
25350;BME280;13302;48.796;11.978;2022-12-26T11:50:16;96982.88;;;12.30;38.71
25350;BME280;13302;48.796;11.978;2022-12-26T11:53:14;96976.88;;;12.28;38.75
25350;BME280;13302;48.796;11.978;2022-12-26T11:56:04;96982.78;;;12.27;38.79
25350;BME280;13302;48.796;11.978;2022-12-26T11:59:06;96990.31;;;12.26;38.73
25350;BME280;13302;48.796;11.978;2022-12-26T12:02:15;96997.81;;;12.26;38.72
25350;BME280;13302;48.796;11.978;2022-12-26T12:05:12;96997.81;;;12.26;38.74
25350;BME280;13302;48.796;11.978;2022-12-26T12:08:06;97003.72;;;12.24;38.77
25350;BME280;13302;48.796;11.978;2022-12-26T12:15:11;97015.53;;;12.21;39.02
25350;BME280;13302;48.796;11.978;2022-12-26T12:17:51;97023.38;;;12.19;39.33
25350;BME280;13302;48.796;11.978;2022-12-26T12:26:50;97049.22;;;12.08;39.58
25350;BME280;13302;48.796;11.978;2022-12-26T12:30:17;97040.91;;;12.08;39.60
25350;BME280;13302;48.796;11.978;2022-12-26T12:36:50;97060.53;;;12.03;39.64
25350;BME280;13302;48.796;11.978;2022-12-26T12:42:46;97047.66;;;11.94;39.98
25350;BME280;13302;48.796;11.978;2022-12-26T12:46:04;97042.50;;;11.93;40.10
25350;BME280;13302;48.796;11.978;2022-12-26T12:58:33;97024.69;;;11.94;40.16
25350;BME280;13302;48.796;11.978;2022-12-26T13:01:26;97035.78;;;11.94;40.64
25350;BME280;13302;48.796;11.978;2022-12-26T13:04:35;97038.53;;;11.94;40.17
25350;BME280;13302;48.796;11.978;2022-12-26T13:07:29;97041.31;;;11.94;40.43
25350;BME280;13302;48.796;11.978;2022-12-26T13:10:23;97037.06;;;11.96;40.58
25350;BME280;13302;48.796;11.978;2022-12-26T13:13:32;97027.94;;;11.96;40.67
25350;BME280;13302;48.796;11.978;2022-12-26T13:16:30;97026.41;;;11.98;40.46
25350;BME280;13302;48.796;11.978;2022-12-26T13:19:24;97030.34;;;11.98;40.47
25350;BME280;13302;48.796;11.978;2022-12-26T13:22:33;97029.53;;;11.97;40.55
25350;BME280;13302;48.796;11.978;2022-12-26T13:25:46;97034.63;;;11.95;40.73
25350;BME280;13302;48.796;11.978;2022-12-26T13:28:41;97038.19;;;11.95;40.60
25350;BME280;13302;48.796;11.978;2022-12-26T13:31:32;97027.84;;;11.92;40.76
25350;BME280;13302;48.796;11.978;2022-12-26T13:34:20;97025.78;;;11.89;40.99
25350;BME280;13302;48.796;11.978;2022-12-26T13:40:28;97009.41;;;11.84;41.15
25350;BME280;13302;48.796;11.978;2022-12-26T13:43:24;97006.28;;;11.86;40.99
25350;BME280;13302;48.796;11.978;2022-12-26T13:46:36;97006.66;;;11.84;41.15
25350;BME280;13302;48.796;11.978;2022-12-26T13:49:38;97004.31;;;11.86;40.94
25350;BME280;13302;48.796;11.978;2022-12-26T13:52:33;97011.13;;;11.89;41.27
25350;BME280;13302;48.796;11.978;2022-12-26T13:55:30;97014.34;;;11.91;41.14
25350;BME280;13302;48.796;11.978;2022-12-26T14:01:55;97016.38;;;11.94;40.93
25350;BME280;13302;48.796;11.978;2022-12-26T14:07:55;97024.69;;;11.94;40.89
25350;BME280;13302;48.796;11.978;2022-12-26T14:11:05;97048.03;;;11.93;41.00
25350;BME280;13302;48.796;11.978;2022-12-26T14:14:07;97057.16;;;11.93;41.14
25350;BME280;13302;48.796;11.978;2022-12-26T14:17:05;97056.78;;;11.95;41.05
25350;BME280;13302;48.796;11.978;2022-12-26T14:20:07;97065.09;;;11.95;40.86
25350;BME280;13302;48.796;11.978;2022-12-26T14:26:47;97067.88;;;11.95;40.79
25350;BME280;13302;48.796;11.978;2022-12-26T14:30:05;97052.88;;;11.96;41.15
25350;BME280;13302;48.796;11.978;2022-12-26T14:36:00;97022.47;;;12.00;41.14
25350;BME280;13302;48.796;11.978;2022-12-26T14:39:03;97046.59;;;11.99;41.16
25350;BME280;13302;48.796;11.978;2022-12-26T14:42:22;97072.00;;;12.01;41.00
25350;BME280;13302;48.796;11.978;2022-12-26T14:57:34;97044.28;;;12.01;40.71
25350;BME280;13302;48.796;11.978;2022-12-26T15:00:28;97034.81;;;12.02;41.08
25350;BME280;13302;48.796;11.978;2022-12-26T15:03:27;96992.00;;;12.00;40.98
25350;BME280;13302;48.796;11.978;2022-12-26T15:12:30;97032.75;;;11.99;40.95
25350;BME280;13302;48.796;11.978;2022-12-26T15:15:25;97035.97;;;12.01;40.96
25350;BME280;13302;48.796;11.978;2022-12-26T15:22:12;97020.16;;;12.02;40.84
25350;BME280;13302;48.796;11.978;2022-12-26T15:31:39;97023.28;;;12.00;40.51
25350;BME280;13302;48.796;11.978;2022-12-26T15:34:39;97032.84;;;12.03;40.71
25350;BME280;13302;48.796;11.978;2022-12-26T15:37:55;97042.34;;;12.02;40.58
25350;BME280;13302;48.796;11.978;2022-12-26T15:41:00;97015.78;;;12.01;40.59
25350;BME280;13302;48.796;11.978;2022-12-26T15:50:02;97049.84;;;12.01;40.84
25350;BME280;13302;48.796;11.978;2022-12-26T15:53:41;97050.66;;;12.02;40.47
25350;BME280;13302;48.796;11.978;2022-12-26T15:56:29;97022.13;;;12.01;40.72
25350;BME280;13302;48.796;11.978;2022-12-26T16:05:44;97016.38;;;11.94;40.67
25350;BME280;13302;48.796;11.978;2022-12-26T16:08:53;97033.00;;;11.94;40.81
25350;BME280;13302;48.796;11.978;2022-12-26T16:11:53;97038.53;;;11.94;41.00
25350;BME280;13302;48.796;11.978;2022-12-26T16:14:41;97023.53;;;11.95;40.81
25350;BME280;13302;48.796;11.978;2022-12-26T16:17:29;97031.50;;;11.96;40.94
25350;BME280;13302;48.796;11.978;2022-12-26T16:20:24;97024.44;;;11.99;40.61
25350;BME280;13302;48.796;11.978;2022-12-26T16:23:37;97029.88;;;11.95;40.94
25350;BME280;13302;48.796;11.978;2022-12-26T16:26:28;97024.34;;;11.95;40.94
25350;BME280;13302;48.796;11.978;2022-12-26T16:29:18;97029.09;;;11.95;40.71
25350;BME280;13302;48.796;11.978;2022-12-26T16:32:06;97026.31;;;11.95;40.57
25350;BME280;13302;48.796;11.978;2022-12-26T16:34:53;97029.09;;;11.95;40.81
25350;BME280;13302;48.796;11.978;2022-12-26T16:37:41;97027.13;;;11.95;40.61
25350;BME280;13302;48.796;11.978;2022-12-26T16:40:33;97038.53;;;11.94;40.95
25350;BME280;13302;48.796;11.978;2022-12-26T16:43:32;97036.97;;;11.93;40.72
25350;BME280;13302;48.796;11.978;2022-12-26T16:46:23;97051.97;;;11.92;41.01
25350;BME280;13302;48.796;11.978;2022-12-26T16:49:12;97044.81;;;11.91;41.04
25350;BME280;13302;48.796;11.978;2022-12-26T16:51:59;97035.69;;;11.90;41.06
25350;BME280;13302;48.796;11.978;2022-12-26T16:54:46;97031.34;;;11.89;40.99
25350;BME280;13302;48.796;11.978;2022-12-26T16:57:33;97027.38;;;11.90;41.10
25350;BME280;13302;48.796;11.978;2022-12-26T17:00:22;97026.56;;;11.90;40.80
25350;BME280;13302;48.796;11.978;2022-12-26T17:03:25;97027.03;;;11.92;41.05
25350;BME280;13302;48.796;11.978;2022-12-26T17:06:21;97020.69;;;11.91;40.75
25350;BME280;13302;48.796;11.978;2022-12-26T17:09:13;97034.53;;;11.91;40.74
25350;BME280;13302;48.796;11.978;2022-12-26T17:12:05;97036.50;;;11.91;41.04
25350;BME280;13302;48.796;11.978;2022-12-26T17:14:54;97041.22;;;11.90;40.71
25350;BME280;13302;48.796;11.978;2022-12-26T17:17:42;97026.94;;;11.88;40.85
25350;BME280;13302;48.796;11.978;2022-12-26T17:20:33;97041.59;;;11.89;41.02
25350;BME280;13302;48.796;11.978;2022-12-26T17:23:34;97022.56;;;11.87;40.79